createdAt,value
2018-04-27T00:01:09.367Z,8.02
2018-04-27T00:03:37.471Z,8.01
2018-04-27T00:06:05.602Z,7.99
2018-04-27T00:08:33.716Z,7.94
2018-04-27T00:11:01.824Z,7.92
2018-04-27T00:13:29.960Z,7.88
2018-04-27T00:15:58.079Z,7.83
2018-04-27T00:18:26.249Z,7.77
2018-04-27T00:20:54.334Z,7.76
2018-04-27T00:23:22.448Z,7.73
2018-04-27T00:25:50.569Z,7.71
2018-04-27T00:28:18.690Z,7.70
2018-04-27T00:30:46.815Z,7.71
2018-04-27T00:33:14.935Z,7.71
2018-04-27T00:35:43.060Z,7.69
2018-04-27T00:38:11.186Z,7.68
2018-04-27T00:40:39.330Z,7.67
2018-04-27T00:43:07.515Z,7.66
2018-04-27T00:45:35.615Z,7.64
2018-04-27T00:48:03.737Z,7.58
2018-04-27T00:50:31.865Z,7.54
2018-04-27T00:53:11.659Z,7.56
2018-04-27T00:55:39.777Z,7.53
2018-04-27T00:58:07.938Z,7.49
2018-04-27T01:00:36.180Z,7.48
2018-04-27T01:03:04.304Z,7.46
2018-04-27T01:05:32.451Z,7.42
2018-04-27T01:08:00.572Z,7.38
2018-04-27T01:10:28.700Z,7.33
2018-04-27T01:12:56.938Z,7.28
2018-04-27T01:15:25.083Z,7.25
2018-04-27T01:17:53.192Z,7.20
2018-04-27T01:20:21.335Z,7.20
2018-04-27T01:22:49.446Z,7.19
2018-04-27T01:25:17.597Z,7.18
2018-04-27T01:27:45.715Z,7.16
2018-04-27T01:30:13.837Z,7.11
2018-04-27T01:32:41.951Z,7.11
2018-04-27T01:35:10.165Z,7.02
2018-04-27T01:37:38.293Z,6.99
2018-04-27T01:40:06.429Z,6.95
2018-04-27T01:42:34.523Z,6.94
2018-04-27T01:45:02.695Z,6.93
2018-04-27T01:47:30.809Z,6.92
2018-04-27T01:49:58.934Z,6.87
2018-04-27T01:52:27.046Z,6.85
2018-04-27T01:54:55.170Z,6.84
2018-04-27T01:57:23.328Z,6.85
2018-04-27T01:59:51.437Z,6.85
2018-04-27T02:02:19.548Z,6.77
2018-04-27T02:04:47.673Z,6.67
2018-04-27T02:07:15.787Z,6.66
2018-04-27T02:09:43.915Z,6.51
2018-04-27T02:12:12.053Z,6.51
2018-04-27T02:14:40.155Z,6.48
2018-04-27T02:17:08.406Z,6.49
2018-04-27T02:19:36.533Z,6.52
2018-04-27T02:22:04.668Z,6.53
2018-04-27T02:24:32.804Z,6.52
2018-04-27T02:27:00.913Z,6.50
2018-04-27T02:29:29.041Z,6.50
2018-04-27T02:31:57.190Z,6.49
2018-04-27T02:34:25.300Z,6.52
2018-04-27T02:36:53.431Z,6.50
2018-04-27T02:39:21.607Z,6.45
2018-04-27T02:41:49.735Z,6.39
2018-04-27T02:44:17.891Z,6.35
2018-04-27T02:46:45.999Z,6.31
2018-04-27T02:49:14.127Z,6.29
2018-04-27T02:51:42.248Z,6.25
2018-04-27T02:54:10.364Z,6.21
2018-04-27T02:56:38.491Z,6.09
2018-04-27T02:59:06.613Z,6.11
2018-04-27T03:01:34.745Z,6.13
2018-04-27T03:04:02.872Z,6.15
2018-04-27T03:06:31.004Z,6.10
2018-04-27T03:08:59.159Z,6.08
2018-04-27T03:11:27.285Z,6.04
2018-04-27T03:13:55.396Z,6.05
2018-04-27T03:16:23.519Z,6.05
2018-04-27T03:18:51.638Z,6.05
2018-04-27T03:21:19.762Z,6.03
2018-04-27T03:23:47.995Z,6.05
2018-04-27T03:26:16.005Z,6.03
2018-04-27T03:28:44.159Z,5.98
2018-04-27T03:31:12.272Z,5.98
2018-04-27T03:33:40.402Z,5.99
2018-04-27T03:36:08.522Z,6.02
2018-04-27T03:38:36.643Z,6.03
2018-04-27T03:41:04.769Z,6.05
2018-04-27T03:43:32.918Z,6.03
2018-04-27T03:46:01.053Z,6.00
2018-04-27T03:48:29.190Z,5.98
2018-04-27T03:50:57.338Z,6.00
2018-04-27T03:53:25.454Z,6.03
2018-04-27T03:55:53.569Z,6.08
2018-04-27T03:58:21.706Z,6.09
2018-04-27T04:01:01.525Z,6.05
2018-04-27T04:03:41.320Z,6.03
2018-04-27T04:06:09.440Z,5.98
2018-04-27T04:08:37.565Z,5.95
2018-04-27T04:11:05.767Z,5.94
2018-04-27T04:13:33.908Z,5.99
2018-04-27T04:16:02.064Z,6.00
2018-04-27T04:18:30.175Z,5.96
2018-04-27T04:20:58.320Z,5.95
2018-04-27T04:23:26.425Z,5.93
2018-04-27T04:25:54.597Z,6.00
2018-04-27T04:28:22.734Z,6.02
2018-04-27T04:30:52.559Z,6.03
2018-04-27T04:33:20.699Z,6.08
2018-04-27T04:35:48.834Z,6.11
2018-04-27T04:38:16.997Z,6.13
2018-04-27T04:40:45.070Z,6.18
2018-04-27T04:43:13.221Z,6.33
2018-04-27T04:45:41.337Z,6.45
2018-04-27T04:48:09.449Z,6.50
2018-04-27T04:50:37.592Z,6.55
2018-04-27T04:53:05.747Z,6.58
2018-04-27T04:55:33.895Z,6.59
2018-04-27T04:58:02.023Z,6.66
2018-04-27T05:00:30.204Z,6.53
2018-04-27T05:02:58.399Z,6.69
2018-04-27T05:05:26.459Z,6.88
2018-04-27T05:07:54.581Z,6.90
2018-04-27T05:10:22.699Z,6.96
2018-04-27T05:12:50.850Z,7.01
2018-04-27T05:15:18.963Z,6.92
2018-04-27T05:17:47.123Z,6.97
2018-04-27T05:20:14.733Z,6.99
2018-04-27T05:22:42.863Z,6.96
2018-04-27T05:25:10.998Z,7.06
2018-04-27T05:27:39.136Z,7.10
2018-04-27T05:30:07.260Z,7.13
2018-04-27T05:32:35.396Z,7.21
2018-04-27T05:35:03.634Z,7.25
2018-04-27T05:37:31.766Z,7.25
2018-04-27T05:42:34.152Z,7.43
2018-04-27T05:45:02.288Z,7.42
2018-04-27T05:47:30.446Z,7.46
2018-04-27T05:49:58.564Z,7.52
2018-04-27T05:52:26.693Z,7.58
2018-04-27T05:54:54.826Z,7.74
2018-04-27T05:57:23.005Z,7.94
2018-04-27T05:59:51.149Z,8.01
2018-04-27T06:02:19.261Z,8.24
2018-04-27T06:04:47.377Z,8.46
2018-04-27T06:07:15.514Z,8.60
2018-04-27T06:09:43.641Z,8.59
2018-04-27T06:12:11.765Z,8.65
2018-04-27T06:14:39.931Z,8.66
2018-04-27T06:17:08.094Z,8.58
2018-04-27T06:19:36.231Z,8.55
2018-04-27T06:22:04.361Z,8.53
2018-04-27T06:24:32.487Z,8.62
2018-04-27T06:27:00.612Z,8.88
2018-04-27T06:29:28.746Z,9.08
2018-04-27T06:31:56.879Z,9.12
2018-04-27T06:34:25.051Z,9.11
2018-04-27T06:36:53.192Z,9.39
2018-04-27T06:39:21.402Z,9.59
2018-04-27T06:41:49.460Z,9.63
2018-04-27T06:44:17.596Z,9.64
2018-04-27T06:46:45.711Z,9.74
2018-04-27T06:49:13.841Z,9.88
2018-04-27T06:51:41.983Z,10.19
2018-04-27T06:54:10.109Z,10.26
2018-04-27T06:56:38.262Z,10.28
2018-04-27T06:59:06.456Z,10.51
2018-04-27T07:01:34.520Z,10.55
2018-04-27T07:04:02.675Z,10.66
2018-04-27T07:06:30.835Z,10.78
2018-04-27T07:08:58.928Z,10.86
2018-04-27T07:11:27.113Z,11.09
2018-04-27T07:13:55.260Z,11.51
2018-04-27T07:16:23.383Z,11.68
2018-04-27T07:18:51.528Z,11.91
2018-04-27T07:21:19.661Z,11.86
2018-04-27T07:23:47.924Z,12.12
2018-04-27T07:26:16.181Z,12.19
2018-04-27T07:28:44.346Z,12.29
2018-04-27T07:31:12.473Z,12.46
2018-04-27T07:33:40.609Z,12.57
2018-04-27T07:36:08.736Z,12.74
2018-04-27T07:38:36.872Z,12.76
2018-04-27T07:41:05.015Z,12.97
2018-04-27T07:43:33.180Z,13.11
2018-04-27T07:46:01.351Z,13.38
2018-04-27T07:48:29.475Z,13.71
2018-04-27T07:50:57.610Z,13.76
2018-04-27T07:53:25.720Z,13.80
2018-04-27T07:55:53.861Z,14.15
2018-04-27T07:58:21.984Z,14.21
2018-04-27T08:00:50.109Z,14.32
2018-04-27T08:03:18.237Z,14.48
2018-04-27T08:05:46.368Z,14.39
2018-04-27T08:08:14.560Z,14.53
2018-04-27T08:10:42.610Z,14.70
2018-04-27T08:13:10.735Z,14.62
2018-04-27T08:15:38.919Z,14.83
2018-04-27T08:18:08.651Z,14.98
2018-04-27T08:20:36.761Z,14.92
2018-04-27T08:23:05.332Z,14.82
2018-04-27T08:25:34.350Z,15.03
2018-04-27T08:28:02.479Z,15.06
2018-04-27T08:30:30.593Z,15.16
2018-04-27T08:32:58.722Z,15.31
2018-04-27T08:35:26.850Z,15.24
2018-04-27T08:37:54.990Z,15.49
2018-04-27T08:40:23.112Z,15.78
2018-04-27T08:42:51.237Z,15.78
2018-04-27T08:45:19.356Z,15.82
2018-04-27T08:47:47.457Z,16.12
2018-04-27T08:50:15.586Z,16.14
2018-04-27T08:52:43.718Z,16.24
2018-04-27T08:55:11.844Z,16.22
2018-04-27T08:57:39.970Z,16.29
2018-04-27T09:00:08.109Z,16.35
2018-04-27T09:02:36.239Z,16.62
2018-04-27T09:05:04.403Z,16.57
2018-04-27T09:07:32.553Z,16.47
2018-04-27T09:10:00.689Z,16.53
2018-04-27T09:12:28.816Z,16.62
2018-04-27T09:14:56.962Z,16.76
2018-04-27T09:17:25.081Z,16.76
2018-04-27T09:19:53.200Z,16.91
2018-04-27T09:22:21.353Z,17.10
2018-04-27T09:24:49.483Z,17.08
2018-04-27T09:27:17.617Z,17.24
2018-04-27T09:29:45.758Z,17.63
2018-04-27T09:32:13.905Z,17.85
2018-04-27T09:34:42.036Z,17.73
2018-04-27T09:37:10.326Z,17.72
2018-04-27T09:39:38.453Z,17.52
2018-04-27T09:42:06.642Z,17.71
2018-04-27T09:44:34.763Z,17.74
2018-04-27T09:47:02.903Z,17.76
2018-04-27T09:49:31.022Z,17.87
2018-04-27T09:51:59.259Z,17.68
2018-04-27T09:54:27.395Z,17.67
2018-04-27T09:56:55.501Z,17.92
2018-04-27T09:59:23.641Z,18.27
2018-04-27T10:01:51.781Z,18.22
2018-04-27T10:04:19.920Z,18.45
2018-04-27T10:06:48.047Z,18.64
2018-04-27T10:09:16.178Z,18.74
2018-04-27T10:11:44.317Z,18.81
2018-04-27T10:14:12.446Z,18.78
2018-04-27T10:16:40.566Z,18.78
2018-04-27T10:19:08.739Z,18.78
2018-04-27T10:21:36.860Z,19.14
2018-04-27T10:24:05.096Z,19.67
2018-04-27T10:26:33.238Z,19.74
2018-04-27T10:29:01.392Z,19.28
2018-04-27T10:31:29.578Z,19.07
2018-04-27T10:33:57.686Z,19.21
2018-04-27T10:36:25.831Z,19.29
2018-04-27T10:38:53.959Z,19.30
2018-04-27T10:41:22.061Z,19.39
2018-04-27T10:43:50.194Z,19.61
2018-04-27T10:46:18.398Z,20.18
2018-04-27T10:48:46.504Z,20.01
2018-04-27T10:51:14.650Z,20.03
2018-04-27T10:53:42.780Z,19.87
2018-04-27T10:56:10.959Z,20.11
2018-04-27T10:58:39.027Z,20.18
2018-04-27T11:01:08.123Z,19.89
2018-04-27T11:03:36.248Z,20.20
2018-04-27T11:06:04.370Z,20.56
2018-04-27T11:08:32.483Z,20.75
2018-04-27T11:11:00.708Z,20.80
2018-04-27T11:13:28.779Z,20.33
2018-04-27T11:15:56.910Z,20.33
2018-04-27T11:18:25.040Z,20.16
2018-04-27T11:20:53.213Z,20.26
2018-04-27T11:23:21.336Z,20.55
2018-04-27T11:25:49.473Z,20.63
2018-04-27T11:28:17.612Z,20.52
2018-04-27T11:30:45.761Z,20.33
2018-04-27T11:33:13.882Z,20.37
2018-04-27T11:35:42.027Z,20.68
2018-04-27T11:38:10.155Z,20.48
2018-04-27T11:40:38.274Z,20.91
2018-04-27T11:43:06.574Z,20.87
2018-04-27T11:45:35.048Z,21.02
2018-04-27T11:48:03.219Z,20.85
2018-04-27T11:50:31.422Z,20.97
2018-04-27T11:52:59.526Z,21.02
2018-04-27T11:55:27.670Z,21.15
2018-04-27T11:57:55.812Z,21.37
2018-04-27T12:00:24.731Z,21.40
2018-04-27T12:02:52.866Z,21.56
2018-04-27T12:05:21.037Z,21.57
2018-04-27T12:07:49.210Z,21.42
2018-04-27T12:10:17.317Z,20.98
2018-04-27T12:12:45.469Z,21.35
2018-04-27T12:15:13.604Z,21.46
2018-04-27T12:17:41.765Z,21.31
2018-04-27T12:20:09.900Z,21.22
2018-04-27T12:22:38.034Z,21.22
2018-04-27T12:25:06.199Z,21.31
2018-04-27T12:27:34.358Z,21.42
2018-04-27T12:30:02.542Z,21.66
2018-04-27T12:32:30.681Z,21.30
2018-04-27T12:34:58.837Z,21.38
2018-04-27T12:37:26.977Z,21.14
2018-04-27T12:39:55.103Z,21.06
2018-04-27T12:42:23.303Z,21.40
2018-04-27T12:44:51.407Z,21.48
2018-04-27T12:47:19.533Z,21.45
2018-04-27T12:49:47.688Z,21.30
2018-04-27T12:52:15.872Z,21.79
2018-04-27T12:54:43.939Z,21.79
2018-04-27T12:57:12.212Z,22.03
2018-04-27T12:59:41.160Z,21.99
2018-04-27T13:02:09.268Z,21.92
2018-04-27T13:04:37.438Z,21.88
2018-04-27T13:07:05.576Z,21.89
2018-04-27T13:09:33.690Z,21.67
2018-04-27T13:12:01.933Z,21.72
2018-04-27T13:14:29.997Z,21.73
2018-04-27T13:16:58.110Z,21.71
2018-04-27T13:19:26.256Z,21.58
2018-04-27T13:21:54.361Z,21.54
2018-04-27T13:24:22.476Z,21.54
2018-04-27T13:26:50.604Z,21.68
2018-04-27T13:29:18.722Z,21.64
2018-04-27T13:31:46.839Z,21.94
2018-04-27T13:34:15.002Z,21.94
2018-04-27T13:36:43.122Z,22.21
2018-04-27T13:39:11.235Z,22.35
2018-04-27T13:41:39.368Z,22.12
2018-04-27T13:44:07.482Z,22.15
2018-04-27T13:46:35.591Z,22.15
2018-04-27T13:49:03.713Z,22.17
2018-04-27T13:51:31.843Z,22.46
2018-04-27T13:53:59.953Z,22.40
2018-04-27T13:56:28.105Z,22.25
2018-04-27T13:58:56.210Z,22.18
2018-04-27T14:01:24.343Z,22.24
2018-04-27T14:03:52.452Z,22.45
2018-04-27T14:06:20.585Z,22.30
2018-04-27T14:08:48.708Z,22.51
2018-04-27T14:11:16.995Z,22.17
2018-04-27T14:13:45.125Z,22.37
2018-04-27T14:16:13.257Z,22.27
2018-04-27T14:18:41.394Z,22.38
2018-04-27T14:21:10.178Z,22.25
2018-04-27T14:23:38.314Z,22.12
2018-04-27T14:26:06.455Z,22.21
2018-04-27T14:28:34.580Z,22.32
2018-04-27T14:31:02.698Z,22.31
2018-04-27T14:33:30.851Z,22.24
2018-04-27T14:35:58.969Z,22.25
2018-04-27T14:38:27.084Z,22.28
2018-04-27T14:40:55.261Z,22.36
2018-04-27T14:43:23.333Z,22.45
2018-04-27T14:45:51.454Z,22.21
2018-04-27T14:48:19.596Z,22.33
2018-04-27T14:50:47.718Z,22.44
2018-04-27T14:53:15.834Z,22.44
2018-04-27T14:55:43.970Z,22.37
2018-04-27T14:58:12.087Z,22.28
2018-04-27T15:00:40.199Z,22.25
2018-04-27T15:03:08.397Z,22.29
2018-04-27T15:05:36.553Z,22.29
2018-04-27T15:08:04.652Z,22.23
2018-04-27T15:10:32.765Z,22.19
2018-04-27T15:13:00.882Z,22.18
2018-04-27T15:15:29.030Z,22.09
2018-04-27T15:17:57.154Z,22.12
2018-04-27T15:20:25.281Z,22.23
2018-04-27T15:22:53.415Z,22.25
2018-04-27T15:25:21.539Z,22.26
2018-04-27T15:27:49.659Z,22.20
2018-04-27T15:30:17.799Z,22.14
2018-04-27T15:32:45.931Z,22.14
2018-04-27T15:35:14.049Z,22.07
2018-04-27T15:37:42.166Z,21.95
2018-04-27T15:40:10.318Z,22.02
2018-04-27T15:42:38.447Z,21.99
2018-04-27T15:45:06.670Z,21.91
2018-04-27T15:47:34.786Z,22.03
2018-04-27T15:50:02.933Z,22.03
2018-04-27T15:52:31.047Z,22.07
2018-04-27T15:54:59.173Z,21.97
2018-04-27T15:57:27.366Z,21.91
2018-04-27T15:59:55.429Z,21.86
2018-04-27T16:02:23.565Z,21.84
2018-04-27T16:04:51.674Z,21.80
2018-04-27T16:07:19.811Z,21.75
2018-04-27T16:09:47.928Z,21.73
2018-04-27T16:12:16.044Z,21.71
2018-04-27T16:14:44.159Z,21.61
2018-04-27T16:17:12.293Z,21.55
2018-04-27T16:19:40.407Z,21.54
2018-04-27T16:22:08.547Z,21.41
2018-04-27T16:24:36.667Z,21.37
2018-04-27T16:27:04.809Z,21.28
2018-04-27T16:29:32.998Z,21.28
2018-04-27T16:32:01.154Z,21.27
2018-04-27T16:34:29.298Z,21.26
2018-04-27T16:36:57.411Z,21.16
2018-04-27T16:39:25.543Z,21.16
2018-04-27T16:41:53.739Z,21.10
2018-04-27T16:44:21.795Z,21.06
2018-04-27T16:46:49.907Z,20.94
2018-04-27T16:49:18.026Z,20.89
2018-04-27T16:51:46.150Z,20.85
2018-04-27T16:54:14.288Z,20.82
2018-04-27T16:56:42.402Z,20.69
2018-04-27T16:59:10.521Z,20.69
2018-04-27T17:01:38.678Z,20.62
2018-04-27T17:04:06.790Z,20.52
2018-04-27T17:06:34.948Z,20.45
2018-04-27T17:09:03.098Z,20.32
2018-04-27T17:11:31.209Z,20.30
2018-04-27T17:13:59.333Z,20.24
2018-04-27T17:16:27.473Z,20.16
2018-04-27T17:18:55.607Z,20.07
2018-04-27T17:21:23.731Z,20.03
2018-04-27T17:23:51.859Z,19.93
2018-04-27T17:26:19.979Z,19.75
2018-04-27T17:28:48.166Z,19.68
2018-04-27T17:31:16.240Z,19.67
2018-04-27T17:33:44.353Z,19.53
2018-04-27T17:36:12.476Z,19.50
2018-04-27T17:38:40.605Z,19.42
2018-04-27T17:41:08.768Z,19.30
2018-04-27T17:43:36.894Z,19.20
2018-04-27T17:46:06.074Z,19.09
2018-04-27T17:48:34.197Z,19.01
2018-04-27T17:51:02.313Z,18.94
2018-04-27T17:53:30.463Z,18.86
2018-04-27T17:55:58.558Z,18.75
2018-04-27T17:58:26.681Z,18.54
2018-04-27T18:00:54.795Z,18.44
2018-04-27T18:03:22.906Z,18.40
2018-04-27T18:05:51.025Z,18.35
2018-04-27T18:08:19.170Z,18.26
2018-04-27T18:10:47.282Z,18.17
2018-04-27T18:13:15.407Z,18.15
2018-04-27T18:15:43.547Z,18.10
2018-04-27T18:18:11.737Z,18.02
2018-04-27T18:20:40.021Z,17.89
2018-04-27T18:23:08.158Z,17.85
2018-04-27T18:25:36.306Z,17.75
2018-04-27T18:28:04.409Z,17.62
2018-04-27T18:30:32.526Z,17.47
2018-04-27T18:33:00.643Z,17.32
2018-04-27T18:35:28.767Z,17.17
2018-04-27T18:37:56.929Z,17.13
2018-04-27T18:40:33.702Z,17.19
2018-04-27T18:43:01.816Z,17.18
2018-04-27T18:45:29.933Z,17.13
2018-04-27T18:47:58.091Z,17.00
2018-04-27T18:50:29.042Z,16.92
2018-04-27T18:52:57.172Z,16.86
2018-04-27T18:55:25.295Z,16.75
2018-04-27T18:57:53.442Z,16.79
2018-04-27T19:00:21.556Z,16.71
2018-04-27T19:02:49.677Z,16.66
2018-04-27T19:05:17.818Z,16.65
2018-04-27T19:07:45.939Z,16.62
2018-04-27T19:12:41.382Z,16.56
2018-04-27T19:15:10.430Z,16.52
2018-04-27T19:17:38.546Z,16.50
2018-04-27T19:20:06.665Z,16.52
2018-04-27T19:22:34.791Z,16.50
2018-04-27T19:25:02.945Z,16.43
2018-04-27T19:27:31.082Z,16.35
2018-04-27T19:30:00.051Z,16.20
2018-04-27T19:32:28.173Z,16.04
2018-04-27T19:34:56.301Z,15.99
2018-04-27T19:37:24.422Z,15.92
2018-04-27T19:39:52.573Z,15.93
2018-04-27T19:42:20.732Z,15.90
2018-04-27T19:44:48.854Z,15.88
2018-04-27T19:47:16.970Z,15.78
2018-04-27T19:49:45.131Z,15.71
2018-04-27T19:52:13.246Z,15.66
2018-04-27T19:54:41.361Z,15.65
2018-04-27T19:57:10.533Z,15.71
2018-04-27T19:59:38.674Z,15.84
2018-04-27T20:02:06.791Z,15.87
2018-04-27T20:04:34.920Z,15.81
2018-04-27T20:07:03.040Z,15.63
2018-04-27T20:09:31.159Z,15.45
2018-04-27T20:11:59.320Z,15.29
2018-04-27T20:14:28.123Z,15.15
2018-04-27T20:16:56.326Z,14.99
2018-04-27T20:19:24.407Z,14.85
2018-04-27T20:21:52.621Z,14.73
2018-04-27T20:24:20.687Z,14.62
2018-04-27T20:26:48.802Z,14.57
2018-04-27T20:29:16.933Z,14.46
2018-04-27T20:31:45.051Z,14.37
2018-04-27T20:34:13.179Z,14.30
2018-04-27T20:36:41.296Z,14.26
2018-04-27T20:39:09.427Z,14.23
2018-04-27T20:41:37.557Z,14.16
2018-04-27T20:44:05.672Z,14.12
2018-04-27T20:46:33.792Z,14.03
2018-04-27T20:49:01.918Z,13.85
2018-04-27T20:51:30.037Z,13.64
2018-04-27T20:54:01.792Z,13.54
2018-04-27T20:56:31.461Z,13.45
2018-04-27T20:58:59.583Z,13.44
2018-04-27T21:01:27.705Z,13.48
2018-04-27T21:03:55.846Z,13.47
2018-04-27T21:06:23.967Z,13.48
2018-04-27T21:08:52.090Z,13.47
2018-04-27T21:11:20.223Z,13.42
2018-04-27T21:13:48.346Z,13.37
2018-04-27T21:16:16.464Z,13.31
2018-04-27T21:18:44.618Z,13.22
2018-04-27T21:21:12.751Z,13.16
2018-04-27T21:23:40.876Z,13.09
2018-04-27T21:26:08.992Z,13.02
2018-04-27T21:28:37.122Z,12.98
2018-04-27T21:31:08.146Z,12.92
2018-04-27T21:33:37.294Z,12.87
2018-04-27T21:36:06.326Z,12.81
2018-04-27T21:38:46.637Z,12.76
2018-04-27T21:41:17.610Z,12.73
2018-04-27T21:43:45.728Z,12.71
2018-04-27T21:46:13.850Z,12.69
2018-04-27T21:48:41.989Z,12.65
2018-04-27T21:51:10.117Z,12.55
2018-04-27T21:53:38.238Z,12.50
2018-04-27T21:56:06.345Z,12.49
2018-04-27T21:58:34.469Z,12.44
2018-04-27T22:01:02.633Z,12.40
2018-04-27T22:03:30.737Z,12.34
2018-04-27T22:06:09.632Z,12.21
2018-04-27T22:08:43.476Z,12.17
2018-04-27T22:11:16.985Z,12.12
2018-04-27T22:13:45.107Z,12.08
2018-04-27T22:16:23.066Z,12.05
2018-04-27T22:18:51.199Z,11.99
2018-04-27T22:21:19.361Z,11.90
2018-04-27T22:23:47.485Z,11.77
2018-04-27T22:26:17.551Z,11.68
2018-04-27T22:28:49.308Z,11.63
2018-04-27T22:31:17.427Z,11.59
2018-04-27T22:33:45.533Z,11.56
2018-04-27T22:36:19.402Z,11.53
2018-04-27T22:38:50.225Z,11.50
2018-04-27T22:41:18.349Z,11.49
2018-04-27T22:43:49.044Z,11.47
2018-04-27T22:46:17.173Z,11.41
2018-04-27T22:48:51.323Z,11.30
2018-04-27T22:51:22.304Z,11.22
2018-04-27T22:53:52.854Z,11.24
2018-04-27T22:59:14.550Z,11.23
2018-04-27T23:01:42.662Z,11.19
2018-04-27T23:04:10.775Z,11.20
2018-04-27T23:06:38.945Z,11.22
2018-04-27T23:09:07.191Z,11.22
2018-04-27T23:11:35.319Z,11.23
2018-04-27T23:14:03.468Z,11.17
2018-04-27T23:16:31.582Z,11.12
2018-04-27T23:18:59.712Z,11.01
2018-04-27T23:22:04.197Z,10.98
2018-04-27T23:24:40.110Z,10.97
2018-04-27T23:27:08.223Z,10.96
2018-04-27T23:29:36.338Z,10.96
2018-04-27T23:32:04.466Z,10.94
2018-04-27T23:34:32.596Z,10.93
2018-04-27T23:37:00.712Z,10.93
2018-04-27T23:39:28.845Z,10.90
2018-04-27T23:41:56.980Z,10.86
2018-04-27T23:44:25.103Z,10.84
2018-04-27T23:46:53.240Z,10.81
2018-04-27T23:49:21.373Z,10.75
2018-04-27T23:51:50.447Z,10.70
2018-04-27T23:54:18.565Z,10.68
2018-04-27T23:56:47.360Z,10.67
2018-04-27T23:59:16.338Z,10.64
